Time;durP1;ratioP1;P1;durP2;ratioP2;P2;SDS_P1;SDS_P2;PMS_P1;PMS_P2;Temp;Humidity;BMP_temperature;BMP_pressure;BME280_temperature;BME280_humidity;BME280_pressure;Samples;Min_cycle;Max_cycle;Signal;HPM_P1;HPM_P2
2022/08/25 00:00:35;;;;;;;;;15.25;14.50;;;;;27.99;32.38;100948.66;5079539;28;45416;-61
2022/08/25 00:03:00;;;;;;;;;12.75;12.75;;;;;27.93;32.33;100938.38;5080023;28;45217;-61
2022/08/25 00:05:28;;;;;;;;;13.50;12.25;;;;;27.93;32.02;100942.91;5080000;28;45207;-61
2022/08/25 00:07:54;;;;;;;;;13.75;13.75;;;;;27.88;32.53;100936.03;5079841;28;46317;-60
2022/08/25 00:10:20;;;;;;;;;16.50;14.50;;;;;27.85;32.27;100935.47;5079964;28;45275;-61
2022/08/25 00:12:45;;;;;;;;;15.50;13.75;;;;;27.82;32.65;100941.97;5079940;28;45319;-60
2022/08/25 00:15:11;;;;;;;;;13.00;12.50;;;;;27.78;32.34;100940.50;5078389;28;45391;-60
2022/08/25 00:17:36;;;;;;;;;14.25;14.25;;;;;27.73;32.67;100937.34;5079617;28;47244;-60
2022/08/25 00:20:04;;;;;;;;;19.00;14.25;;;;;27.70;33.01;100940.31;5079787;28;45273;-60
2022/08/25 00:22:29;;;;;;;;;13.75;13.75;;;;;27.69;33.06;100941.31;5080178;28;45362;-60
2022/08/25 00:24:54;;;;;;;;;15.00;15.00;;;;;27.63;33.36;100928.31;5074283;28;45449;-60
2022/08/25 00:27:20;;;;;;;;;11.75;10.00;;;;;27.62;32.69;100934.69;5077535;28;45164;-60
2022/08/25 00:29:45;;;;;;;;;20.75;18.75;;;;;27.58;33.20;100936.78;5083277;28;45235;-60
2022/08/25 00:32:12;;;;;;;;;16.25;15.75;;;;;27.53;33.02;100926.41;5068133;28;45178;-60
2022/08/25 00:34:37;;;;;;;;;19.00;16.50;;;;;27.53;32.84;100923.69;5082779;28;45330;-60
2022/08/25 00:37:08;;;;;;;;;15.75;14.50;;;;;27.51;33.39;100922.97;5082872;28;45507;-60
2022/08/25 00:39:35;;;;;;;;;15.50;15.50;;;;;27.45;32.90;100909.13;5083017;28;45303;-60
2022/08/25 00:42:02;;;;;;;;;16.00;16.00;;;;;27.42;33.61;100907.50;5083084;28;45343;-59
2022/08/25 00:44:29;;;;;;;;;15.75;15.75;;;;;27.41;33.27;100911.22;5083119;28;45394;-60
2022/08/25 00:46:57;;;;;;;;;21.00;18.50;;;;;27.38;33.70;100917.69;5082215;28;46344;-60
2022/08/25 00:49:48;;;;;;;;;17.25;17.00;;;;;27.35;33.60;100917.94;5082954;28;45264;-60
2022/08/25 00:52:21;;;;;;;;;15.00;13.75;;;;;27.31;33.43;100916.47;5070752;28;45288;-59
2022/08/25 00:54:53;;;;;;;;;14.00;14.00;;;;;27.29;33.33;100931.09;5062650;28;45364;-60
2022/08/25 00:57:23;;;;;;;;;18.75;14.75;;;;;27.27;33.69;100924.94;5062254;28;47907;-60
2022/08/25 00:59:49;;;;;;;;;16.50;16.00;;;;;27.22;33.96;100917.22;5062007;28;45344;-60
2022/08/25 01:02:15;;;;;;;;;14.50;13.75;;;;;27.20;33.99;100924.59;5062411;28;45395;-60
2022/08/25 01:04:42;;;;;;;;;16.50;16.00;;;;;27.17;33.85;100920.31;5044124;28;45340;-60
2022/08/25 01:07:08;;;;;;;;;17.75;15.75;;;;;27.14;34.16;100917.00;5062514;28;46272;-60
2022/08/25 01:09:34;;;;;;;;;17.75;16.00;;;;;27.13;34.27;100920.69;5062274;28;45251;-61
2022/08/25 01:12:00;;;;;;;;;14.25;14.00;;;;;27.10;34.29;100924.50;5062629;28;45220;-61
2022/08/25 01:14:30;;;;;;;;;15.25;15.25;;;;;27.05;33.76;100922.16;5062269;28;45262;-61
2022/08/25 01:16:57;;;;;;;;;14.75;14.75;;;;;27.05;33.65;100916.75;5061807;28;46033;-62
2022/08/25 01:19:24;;;;;;;;;15.00;13.25;;;;;27.04;34.31;100919.59;5061963;28;45413;-61
2022/08/25 01:21:51;;;;;;;;;11.25;11.00;;;;;27.01;33.80;100923.41;5062223;28;45243;-61
2022/08/25 01:24:41;;;;;;;;;11.00;10.00;;;;;26.99;33.79;100921.81;5061976;28;45517;-61
2022/08/25 01:27:09;;;;;;;;;11.00;11.00;;;;;26.96;33.65;100922.91;5069830;28;47753;-61
2022/08/25 01:29:35;;;;;;;;;10.75;9.00;;;;;26.95;33.83;100928.44;5061869;28;45245;-60
2022/08/25 01:32:05;;;;;;;;;13.25;12.00;;;;;26.92;34.17;100921.47;5061639;28;45493;-60
2022/08/25 01:34:34;;;;;;;;;11.75;11.75;;;;;26.90;33.99;100916.16;5061765;28;45386;-60
2022/08/25 01:37:00;;;;;;;;;10.50;9.25;;;;;26.89;34.22;100913.59;5061580;28;46118;-60
2022/08/25 01:39:29;;;;;;;;;9.00;9.00;;;;;26.86;34.14;100917.41;5061224;28;45256;-60
2022/08/25 01:42:04;;;;;;;;;12.00;9.00;;;;;26.85;33.58;100921.06;5061845;28;45446;-60
2022/08/25 01:44:33;;;;;;;;;8.00;8.00;;;;;26.84;33.72;100921.22;5061910;28;45326;-60
2022/08/25 01:46:59;;;;;;;;;11.75;11.25;;;;;26.81;33.48;100924.16;5061057;28;46254;-60
2022/08/25 01:49:25;;;;;;;;;10.75;10.75;;;;;26.79;33.76;100920.72;5061762;28;45252;-60
2022/08/25 01:51:56;;;;;;;;;10.75;10.00;;;;;26.77;33.61;100918.16;5070400;28;45433;-60
2022/08/25 01:54:22;;;;;;;;;10.75;9.00;;;;;26.72;33.76;100905.00;5061821;28;45312;-60
2022/08/25 01:56:47;;;;;;;;;8.50;8.50;;;;;26.70;33.70;100906.97;5077926;28;46139;-60
2022/08/25 01:59:18;;;;;;;;;12.50;11.00;;;;;26.70;33.91;100906.13;5081893;27;45418;-60
2022/08/25 02:01:44;;;;;;;;;12.50;12.50;;;;;26.67;33.79;100896.44;5081529;28;45378;-61
2022/08/25 02:04:09;;;;;;;;;13.75;13.00;;;;;26.65;34.30;100897.53;5081790;28;45552;-61
2022/08/25 02:06:35;;;;;;;;;12.00;10.50;;;;;26.60;34.19;100888.00;5081714;28;46305;-61
2022/08/25 02:09:08;;;;;;;;;10.00;10.00;;;;;26.57;34.29;100885.53;5081731;28;45326;-61
2022/08/25 02:11:36;;;;;;;;;12.50;9.75;;;;;26.58;33.59;100887.25;5081686;28;45387;-61
2022/08/25 02:14:01;;;;;;;;;12.50;11.75;;;;;26.54;33.47;100880.41;5081692;28;45461;-61
2022/08/25 02:16:30;;;;;;;;;12.50;11.50;;;;;26.52;33.78;100882.34;5081019;28;45194;-61
2022/08/25 02:18:57;;;;;;;;;10.25;9.75;;;;;26.49;33.68;100877.22;5081603;28;45243;-61
2022/08/25 02:21:23;;;;;;;;;10.50;10.50;;;;;26.49;34.23;100881.72;5081403;28;45433;-61
2022/08/25 02:23:49;;;;;;;;;12.25;11.50;;;;;26.46;33.74;100882.84;5081311;28;45353;-61
2022/08/25 02:26:18;;;;;;;;;11.25;11.25;;;;;26.43;33.51;100877.72;5061204;28;45725;-61
2022/08/25 02:28:48;;;;;;;;;13.50;9.50;;;;;26.41;33.64;100879.66;5073389;28;45263;-61
2022/08/25 02:31:15;;;;;;;;;12.00;12.00;;;;;26.37;33.91;100870.09;5079548;28;45424;-61
2022/08/25 02:33:40;;;;;;;;;10.00;10.00;;;;;26.36;34.45;100866.53;5081327;28;45318;-61
2022/08/25 02:36:06;;;;;;;;;11.25;10.00;;;;;26.34;33.76;100862.25;5081075;28;46015;-61
2022/08/25 02:38:32;;;;;;;;;11.00;10.75;;;;;26.32;34.36;100862.38;5081122;28;45267;-61
2022/08/25 02:40:59;;;;;;;;;12.75;12.00;;;;;26.29;33.76;100868.03;5081316;28;45260;-61
2022/08/25 02:43:26;;;;;;;;;14.75;14.00;;;;;26.25;34.53;100863.84;5081094;27;45457;-61
2022/08/25 02:45:58;;;;;;;;;14.25;13.50;;;;;26.23;34.06;100863.13;5079867;28;45374;-61
2022/08/25 02:48:23;;;;;;;;;16.00;14.50;;;;;26.21;33.92;100852.47;5080916;28;45260;-61
2022/08/25 02:50:51;;;;;;;;;14.75;13.75;;;;;26.17;34.69;100848.28;5067356;28;45337;-61
2022/08/25 02:53:18;;;;;;;;;12.75;12.75;;;;;26.16;34.72;100848.41;5067648;27;45371;-61
2022/08/25 02:55:44;;;;;;;;;15.00;13.75;;;;;26.12;34.84;100845.09;5068267;28;46455;-61
2022/08/25 02:58:09;;;;;;;;;14.25;13.75;;;;;26.11;34.79;100846.06;5079484;28;45331;-61
2022/08/25 03:00:35;;;;;;;;;13.00;13.00;;;;;26.08;34.54;100836.41;5071836;28;45502;-62
2022/08/25 03:03:00;;;;;;;;;11.75;11.75;;;;;25.97;34.40;100820.19;5074450;28;45342;-61
2022/08/25 03:05:26;;;;;;;;;9.00;9.00;;;;;26.00;34.98;100822.66;5081002;28;46123;-61
2022/08/25 03:07:51;;;;;;;;;12.50;12.00;;;;;26.00;35.31;100828.06;5080641;28;45390;-61
2022/08/25 03:10:18;;;;;;;;;13.00;12.50;;;;;25.95;35.28;100839.16;5081100;28;45264;-61
2022/08/25 03:12:44;;;;;;;;;16.75;15.50;;;;;25.91;35.09;100832.31;5080531;28;45895;-61
2022/08/25 03:15:15;;;;;;;;;15.75;14.00;;;;;25.89;35.10;100839.66;5080481;28;48033;-61
2022/08/25 03:17:40;;;;;;;;;14.00;13.50;;;;;25.86;35.18;100831.81;5079049;28;45504;-61
2022/08/25 03:20:06;;;;;;;;;11.50;11.50;;;;;25.85;34.88;100840.00;5060116;28;46718;-61
2022/08/25 03:22:31;;;;;;;;;12.75;11.25;;;;;25.80;35.20;100829.59;5060092;28;45452;-61
2022/08/25 03:26:52;;;;;;;;;14.25;13.00;;;;;25.76;34.95;100830.78;5060222;28;45402;-61
2022/08/25 03:27:42;;;;;;;;;15.25;14.00;;;;;25.75;35.37;100826.41;5060138;28;45298;-61
2022/08/25 03:30:09;;;;;;;;;12.25;12.25;;;;;25.71;35.00;100820.41;5060019;28;45238;-61
2022/08/25 03:32:34;;;;;;;;;11.75;11.75;;;;;25.68;35.21;100822.47;5059893;28;45162;-61
2022/08/25 03:35:00;;;;;;;;;13.00;12.25;;;;;25.57;35.45;100808.03;5059949;28;48917;-61
2022/08/25 03:37:26;;;;;;;;;12.75;11.50;;;;;25.63;35.20;100812.06;5060108;28;45248;-61
2022/08/25 03:39:51;;;;;;;;;11.75;11.75;;;;;25.60;35.39;100806.94;5060071;28;45268;-61
2022/08/25 03:42:17;;;;;;;;;12.00;10.75;;;;;25.55;35.45;100791.13;5073355;28;45244;-61
2022/08/25 03:44:42;;;;;;;;;12.00;12.00;;;;;25.55;35.01;100790.28;5059916;28;45586;-61
2022/08/25 03:47:07;;;;;;;;;13.75;12.75;;;;;25.53;34.99;100795.75;5059776;28;45479;-61
2022/08/25 03:49:33;;;;;;;;;14.00;14.00;;;;;25.50;35.28;100792.44;5060157;28;45348;-61
2022/08/25 03:51:58;;;;;;;;;11.25;11.00;;;;;25.49;35.50;100796.13;5067793;28;45331;-61
2022/08/25 03:54:24;;;;;;;;;12.00;10.25;;;;;25.45;35.09;100790.97;5059976;28;45348;-61
2022/08/25 03:56:50;;;;;;;;;11.00;11.00;;;;;25.41;35.61;100792.19;5077258;28;45394;-61
2022/08/25 03:59:16;;;;;;;;;11.00;11.00;;;;;25.40;35.36;100789.63;5083735;28;45321;-61
2022/08/25 04:01:44;;;;;;;;;13.25;12.75;;;;;25.36;35.38;100791.69;5083225;28;45683;-61
2022/08/25 04:04:11;;;;;;;;;12.75;12.50;;;;;25.32;35.63;100795.56;5083826;28;45283;-61
2022/08/25 04:06:38;;;;;;;;;18.50;16.00;;;;;25.28;36.03;100807.50;5083420;28;45343;-61
2022/08/25 04:09:03;;;;;;;;;18.00;18.00;;;;;25.22;35.82;100803.44;5083851;28;45391;-61
2022/08/25 04:11:29;;;;;;;;;13.00;12.25;;;;;25.23;35.67;100812.38;5083305;28;45355;-61
2022/08/25 04:13:59;;;;;;;;;17.00;16.00;;;;;25.20;36.00;100808.06;5083619;28;45291;-62
2022/08/25 04:16:30;;;;;;;;;17.75;17.50;;;;;25.15;35.70;100810.25;5081750;28;45228;-61
2022/08/25 04:18:58;;;;;;;;;25.00;21.75;;;;;25.15;36.07;100812.94;5083524;28;45412;-62
2022/08/25 04:21:24;;;;;;;;;19.75;18.25;;;;;25.12;36.03;100813.19;5083190;28;45496;-61
2022/08/25 04:23:51;;;;;;;;;15.00;14.75;;;;;25.11;35.98;100819.53;5083286;28;46202;-62
2022/08/25 04:26:18;;;;;;;;;16.25;16.25;;;;;25.08;36.02;100815.25;5083230;28;45395;-61
2022/08/25 04:28:43;;;;;;;;;18.50;15.75;;;;;25.06;35.85;100817.19;5083362;28;45362;-61
2022/08/25 04:31:10;;;;;;;;;16.00;16.00;;;;;25.04;36.30;100811.03;5082651;28;45672;-61
2022/08/25 04:33:37;;;;;;;;;17.75;16.75;;;;;25.03;36.15;100819.22;5083297;28;46200;-61
2022/08/25 04:36:04;;;;;;;;;17.25;16.25;;;;;25.02;36.19;100830.94;5083118;28;45181;-61
2022/08/25 04:38:29;;;;;;;;;18.50;16.25;;;;;24.99;36.22;100826.66;5083310;28;45397;-61
2022/08/25 04:41:01;;;;;;;;;21.00;16.00;;;;;24.99;36.38;100834.72;5082886;28;45236;-61
2022/08/25 04:43:27;;;;;;;;;17.50;17.50;;;;;24.97;36.52;100840.22;5083005;28;46050;-61
2022/08/25 04:45:52;;;;;;;;;15.00;13.00;;;;;24.95;36.47;100844.00;5082648;28;45255;-61
2022/08/25 04:48:18;;;;;;;;;17.00;17.00;;;;;24.90;36.61;100844.31;5083331;28;45212;-61
2022/08/25 04:50:44;;;;;;;;;21.00;17.25;;;;;24.91;36.64;100848.72;5073491;28;45259;-61
2022/08/25 04:53:10;;;;;;;;;16.25;16.25;;;;;24.91;36.34;100846.03;5068409;27;46397;-61
2022/08/25 04:55:46;;;;;;;;;17.25;17.25;;;;;24.90;36.43;100847.00;5069186;28;45275;-61
2022/08/25 04:58:13;;;;;;;;;15.50;14.75;;;;;24.90;36.64;100848.84;5081005;27;45688;-61
2022/08/25 05:00:39;;;;;;;;;14.50;13.25;;;;;24.85;36.78;100851.84;5061814;28;45430;-61
2022/08/25 05:03:05;;;;;;;;;14.75;13.75;;;;;24.88;37.07;100854.34;5062164;28;45586;-61
2022/08/25 05:05:34;;;;;;;;;13.50;13.50;;;;;24.88;36.56;100859.72;5061405;28;45703;-61
2022/08/25 05:07:59;;;;;;;;;14.75;13.75;;;;;24.88;36.56;100856.16;5062069;28;45174;-61
2022/08/25 05:10:25;;;;;;;;;12.50;11.50;;;;;24.87;36.54;100855.31;5062326;28;45236;-61
2022/08/25 05:12:50;;;;;;;;;13.25;12.75;;;;;24.87;36.46;100870.56;5060795;28;48031;-61
2022/08/25 05:17:59;;;;;;;;;13.25;11.50;;;;;24.85;36.66;100877.88;5062241;28;45252;-61
2022/08/25 05:20:25;;;;;;;;;14.00;11.75;;;;;24.83;36.39;100878.00;5062096;28;45486;-61
2022/08/25 05:22:51;;;;;;;;;14.00;13.00;;;;;24.82;36.56;100885.19;5061824;28;46151;-61
2022/08/25 05:25:16;;;;;;;;;14.25;14.25;;;;;24.82;36.63;100895.09;5062171;28;45244;-61
2022/08/25 05:27:42;;;;;;;;;12.00;11.75;;;;;24.81;36.53;100891.53;5062254;28;45326;-61
2022/08/25 05:30:09;;;;;;;;;12.50;12.25;;;;;24.80;36.55;100891.66;5061771;28;45537;-61
2022/08/25 05:32:35;;;;;;;;;13.75;13.25;;;;;24.80;36.33;100894.34;5061626;28;46173;-60
2022/08/25 05:35:00;;;;;;;;;16.75;12.25;;;;;24.80;36.57;100895.22;5062098;28;45264;-60
2022/08/25 05:37:26;;;;;;;;;12.00;10.75;;;;;24.79;36.59;100896.19;5061911;28;45310;-61
2022/08/25 05:39:51;;;;;;;;;16.75;14.25;;;;;24.79;36.55;100896.19;5061935;28;45307;-61
2022/08/25 05:42:16;;;;;;;;;10.50;10.50;;;;;24.78;36.48;100894.44;5060416;28;50036;-60
2022/08/25 05:44:42;;;;;;;;;14.00;13.00;;;;;24.78;36.50;100888.19;5066253;28;45355;-61
2022/08/25 05:47:07;;;;;;;;;18.25;12.50;;;;;24.78;36.44;100882.81;5061642;28;45531;-60
2022/08/25 05:49:32;;;;;;;;;13.50;13.50;;;;;24.77;36.44;100886.50;5066037;28;45478;-60
2022/08/25 05:51:58;;;;;;;;;14.00;14.00;;;;;24.77;36.39;100894.56;5071286;28;47203;-60
2022/08/25 05:54:23;;;;;;;;;14.75;13.75;;;;;24.77;36.50;100894.56;5061558;28;45223;-60
2022/08/25 05:56:49;;;;;;;;;15.00;13.50;;;;;24.74;36.77;100889.41;5077166;28;45466;-60
2022/08/25 05:59:14;;;;;;;;;15.00;14.00;;;;;24.75;36.36;100891.97;5081654;28;45139;-60
2022/08/25 06:04:24;;;;;;;;;12.75;12.75;;;;;24.76;36.59;100901.75;5081823;28;45366;-61
2022/08/25 06:06:52;;;;;;;;;14.25;12.00;;;;;24.77;36.76;100902.63;5081657;28;45479;-61
2022/08/25 06:09:18;;;;;;;;;13.75;12.50;;;;;24.77;36.83;100895.41;5081716;28;45389;-61
2022/08/25 06:11:43;;;;;;;;;14.75;13.75;;;;;24.78;36.49;100902.50;5081485;28;45317;-60
2022/08/25 06:14:09;;;;;;;;;18.00;18.00;;;;;24.78;36.36;100897.13;5081736;28;45346;-60
2022/08/25 06:16:37;;;;;;;;;16.25;14.75;;;;;24.79;36.53;100896.19;5081282;28;45519;-61
2022/08/25 06:19:03;;;;;;;;;16.00;15.00;;;;;24.81;37.12;100893.38;5080704;28;45216;-60
2022/08/25 06:21:29;;;;;;;;;15.50;15.00;;;;;24.81;36.96;100893.38;5059705;28;47094;-60
2022/08/25 06:23:54;;;;;;;;;15.25;14.00;;;;;24.82;37.18;100889.72;5073954;28;45313;-60
2022/08/25 06:26:20;;;;;;;;;16.25;14.00;;;;;24.83;36.79;100886.06;5081502;28;45239;-60
2022/08/25 06:28:45;;;;;;;;;15.75;13.75;;;;;24.83;36.75;100888.75;5081396;28;45600;-61
2022/08/25 06:31:11;;;;;;;;;17.75;14.00;;;;;24.84;36.64;100879.69;5080763;28;45283;-60
2022/08/25 06:33:38;;;;;;;;;16.00;14.75;;;;;24.83;37.09;100883.38;5081499;28;45560;-60
2022/08/25 06:36:03;;;;;;;;;16.25;14.25;;;;;24.87;36.64;100887.56;5081342;28;45244;-61
2022/08/25 06:38:29;;;;;;;;;14.50;13.00;;;;;24.88;36.80;100893.78;5081138;28;45501;-61
2022/08/25 06:40:56;;;;;;;;;14.50;12.50;;;;;24.89;36.63;100899.06;5080835;28;46038;-61
2022/08/25 06:43:22;;;;;;;;;14.00;12.00;;;;;24.89;36.71;100898.19;5081204;28;45316;-60
2022/08/25 06:45:47;;;;;;;;;11.50;9.75;;;;;24.90;36.55;100898.06;5080820;28;45287;-60
2022/08/25 06:48:13;;;;;;;;;14.25;14.25;;;;;24.91;36.86;100897.09;5081052;28;45252;-60
2022/08/25 06:50:40;;;;;;;;;17.50;15.75;;;;;24.93;36.70;100900.53;5071524;27;46171;-61
2022/08/25 06:53:06;;;;;;;;;14.75;12.50;;;;;24.94;36.68;100894.22;5067792;27;45359;-61
2022/08/25 06:55:33;;;;;;;;;14.50;13.00;;;;;24.96;36.48;100892.25;5066448;28;45292;-61
2022/08/25 06:57:58;;;;;;;;;14.00;14.00;;;;;24.97;36.53;100893.97;5080972;27;45442;-61
2022/08/25 07:00:24;;;;;;;;;11.00;10.25;;;;;25.01;36.28;100889.22;5080192;28;45249;-61
2022/08/25 07:02:49;;;;;;;;;15.00;15.00;;;;;25.03;36.52;100894.50;5080644;28;45450;-61
2022/08/25 07:05:15;;;;;;;;;11.75;9.50;;;;;25.06;36.37;100894.28;5080992;28;45296;-61
2022/08/25 07:07:43;;;;;;;;;14.50;12.75;;;;;25.08;36.13;100892.31;5080746;28;45426;-61
2022/08/25 07:10:08;;;;;;;;;10.00;10.00;;;;;25.10;36.22;100896.63;5080452;28;46964;-61
2022/08/25 07:12:34;;;;;;;;;12.50;11.00;;;;;25.12;36.25;100891.16;5080458;28;45434;-61
2022/08/25 07:14:59;;;;;;;;;13.25;11.00;;;;;25.14;36.00;100894.56;5080522;28;45255;-63
2022/08/25 07:17:25;;;;;;;;;12.25;12.25;;;;;25.16;35.98;100892.63;5080558;28;45473;-61
2022/08/25 07:19:51;;;;;;;;;12.75;11.00;;;;;25.18;36.34;100890.66;5080340;28;46267;-61
2022/08/25 07:22:17;;;;;;;;;11.75;11.00;;;;;25.22;36.00;100894.88;5080365;28;45315;-61
2022/08/25 07:24:42;;;;;;;;;12.50;10.75;;;;;25.25;36.22;100899.16;5080635;28;45288;-61
2022/08/25 07:27:08;;;;;;;;;9.75;9.75;;;;;25.29;36.00;100895.25;5080574;28;45411;-61
2022/08/25 07:29:37;;;;;;;;;10.00;10.00;;;;;25.32;36.04;100900.44;5080078;28;46047;-61
2022/08/25 07:32:03;;;;;;;;;9.50;9.00;;;;;25.34;36.00;100895.78;5080109;28;45215;-61
2022/08/25 07:37:13;;;;;;;;;11.25;10.00;;;;;25.43;35.89;100897.84;5075686;28;45231;-61
2022/08/25 07:39:38;;;;;;;;;11.75;10.50;;;;;25.47;35.59;100899.31;5080058;28;50809;-62
2022/08/25 07:42:04;;;;;;;;;12.75;12.75;;;;;25.51;36.22;100901.75;5080393;28;45329;-61
2022/08/25 07:44:29;;;;;;;;;11.50;11.50;;;;;25.54;35.68;100905.09;5079060;28;45357;-61
2022/08/25 07:46:55;;;;;;;;;12.25;11.25;;;;;25.59;36.04;100915.50;5080169;28;45235;-61
2022/08/25 07:49:22;;;;;;;;;12.00;11.00;;;;;25.61;35.99;100903.66;5080207;28;45336;-61
2022/08/25 07:51:48;;;;;;;;;13.00;12.50;;;;;25.65;35.79;100904.28;5069195;28;45342;-61
2022/08/25 07:54:13;;;;;;;;;13.75;12.50;;;;;25.67;35.85;100905.00;5060082;28;45542;-61
2022/08/25 07:56:41;;;;;;;;;11.25;10.50;;;;;25.72;35.52;100912.75;5075143;28;45314;-61
2022/08/25 07:59:08;;;;;;;;;13.25;13.25;;;;;25.76;35.59;100909.72;5079805;28;46348;-61
2022/08/25 08:01:33;;;;;;;;;10.25;10.25;;;;;25.78;35.82;100907.75;5079639;28;45348;-61
2022/08/25 08:03:58;;;;;;;;;14.75;13.00;;;;;25.82;35.87;100897.59;5080140;28;45213;-61
2022/08/25 08:06:24;;;;;;;;;10.50;10.50;;;;;25.86;35.58;100898.22;5064959;28;52369;-61
2022/08/25 08:08:52;;;;;;;;;12.00;11.25;;;;;25.90;35.83;100889.81;5080005;28;46294;-61
2022/08/25 08:11:21;;;;;;;;;12.25;10.50;;;;;25.94;35.36;100893.13;5079749;28;45441;-61
2022/08/25 08:13:48;;;;;;;;;13.50;12.00;;;;;26.00;35.93;100881.03;5080026;28;45259;-61
2022/08/25 08:16:16;;;;;;;;;11.75;11.50;;;;;26.05;35.90;100884.22;5078152;28;46001;-61
2022/08/25 08:18:43;;;;;;;;;13.50;10.50;;;;;26.09;35.30;100885.75;5079700;28;45313;-61
2022/08/25 08:21:18;;;;;;;;;16.75;14.00;;;;;26.15;35.94;100881.69;5079498;28;45335;-61
2022/08/25 08:23:43;;;;;;;;;11.25;10.00;;;;;26.20;35.21;100883.06;5079735;28;45342;-61
2022/08/25 08:26:09;;;;;;;;;13.75;13.00;;;;;26.27;35.23;100878.06;5079511;28;45298;-61
2022/08/25 08:28:34;;;;;;;;;16.75;12.75;;;;;26.32;35.11;100880.38;5079706;28;45315;-61
2022/08/25 08:31:00;;;;;;;;;12.00;12.00;;;;;26.38;35.14;100885.28;5079261;28;45501;-61
2022/08/25 08:33:25;;;;;;;;;15.00;12.75;;;;;26.44;35.30;100888.34;5079909;28;45355;-61
2022/08/25 08:36:11;;;;;;;;;15.00;14.00;;;;;26.53;35.56;100894.00;5079528;28;45438;-61
2022/08/25 08:38:38;;;;;;;;;15.00;13.75;;;;;26.59;35.13;100894.38;5078980;28;46220;-61
2022/08/25 08:44:31;;;;;;;;;15.25;12.50;;;;;26.74;35.65;100899.53;5082139;28;45290;-61
2022/08/25 08:47:07;;;;;;;;;13.25;13.00;;;;;26.82;35.33;100913.25;5036137;28;45280;-61
2022/08/25 08:50:01;;;;;;;;;12.00;10.00;;;;;26.89;35.40;100929.78;5062633;28;45442;-61
2022/08/25 08:52:44;;;;;;;;;11.50;11.50;;;;;26.95;34.82;100910.41;5070389;28;45342;-61
2022/08/25 08:55:39;;;;;;;;;14.50;12.25;;;;;27.03;34.92;100904.41;5065489;28;45452;-61
2022/08/25 08:58:10;;;;;;;;;13.75;12.25;;;;;27.10;35.03;100897.53;5080351;27;45424;-61
2022/08/25 09:00:41;;;;;;;;;14.75;14.00;;;;;27.18;35.08;100904.97;5082235;28;45473;-61
2022/08/25 09:03:14;;;;;;;;;14.75;12.00;;;;;27.26;34.98;100921.41;5082426;28;45319;-61
2022/08/25 09:05:46;;;;;;;;;15.00;13.25;;;;;27.31;34.77;100919.19;5082879;28;45204;-61
2022/08/25 09:08:13;;;;;;;;;11.50;11.50;;;;;27.40;34.98;100896.00;5082763;28;45327;-61
2022/08/25 09:10:57;;;;;;;;;11.25;11.25;;;;;27.50;34.55;100888.03;5081162;28;46207;-61
2022/08/25 09:13:52;;;;;;;;;12.75;12.75;;;;;27.63;34.26;100912.13;5082434;28;45275;-61
2022/08/25 09:19:56;;;;;;;;;12.75;11.75;;;;;27.78;34.42;100910.81;5082490;28;45543;-61
2022/08/25 09:22:22;;;;;;;;;12.75;12.75;;;;;27.88;34.38;100909.03;5082479;28;45407;-62
2022/08/25 09:24:56;;;;;;;;;15.00;13.00;;;;;27.98;34.28;100897.47;5082370;28;45356;-61
2022/08/25 09:27:30;;;;;;;;;11.75;11.00;;;;;28.07;33.73;100903.97;5082501;28;45185;-62
2022/08/25 09:30:07;;;;;;;;;13.25;12.25;;;;;28.15;34.17;100905.03;5082229;28;46471;-61
2022/08/25 09:32:38;;;;;;;;;12.00;12.00;;;;;28.26;34.45;100900.53;5081962;28;46013;-61
2022/08/25 09:35:06;;;;;;;;;12.75;12.00;;;;;28.37;33.88;100895.03;5081066;28;45302;-61
2022/08/25 09:37:31;;;;;;;;;12.00;12.00;;;;;28.49;34.40;100899.38;5082162;28;45231;-62
2022/08/25 09:39:56;;;;;;;;;16.00;14.25;;;;;28.61;33.84;100904.69;5082101;28;45165;-63
2022/08/25 09:42:46;;;;;;;;;16.00;14.00;;;;;28.75;33.87;100903.50;5082091;28;45989;-62
2022/08/25 09:45:13;;;;;;;;;11.25;9.50;;;;;28.86;33.83;100906.09;5081851;28;45339;-62
2022/08/25 09:47:43;;;;;;;;;13.50;13.00;;;;;28.99;33.63;100908.53;5073696;28;45466;-62
2022/08/25 09:50:18;;;;;;;;;13.00;11.75;;;;;29.10;33.57;100911.13;5069847;28;45569;-62
2022/08/25 09:52:44;;;;;;;;;10.25;10.25;;;;;29.20;33.77;100905.75;5071178;28;46072;-62
2022/08/25 09:55:13;;;;;;;;;10.25;10.25;;;;;29.34;33.21;100907.22;5062881;28;45635;-62
2022/08/25 09:57:56;;;;;;;;;15.25;13.75;;;;;29.47;33.26;100915.06;5082183;28;45227;-62
2022/08/25 10:00:32;;;;;;;;;11.25;11.25;;;;;29.59;33.08;100899.56;5081273;28;45507;-62
2022/08/25 10:03:06;;;;;;;;;14.50;12.50;;;;;29.70;32.72;100902.13;5081302;28;46230;-62
2022/08/25 10:05:36;;;;;;;;;12.25;11.75;;;;;29.80;32.85;100891.28;5081565;28;45389;-62
2022/08/25 10:08:10;;;;;;;;;14.00;13.25;;;;;29.92;32.79;100897.44;5081848;27;45241;-62
2022/08/25 10:10:53;;;;;;;;;12.75;12.75;;;;;30.05;32.31;100894.41;5081698;28;45326;-62
2022/08/25 10:13:22;;;;;;;;;13.00;12.50;;;;;30.14;32.54;100894.38;5081473;28;46237;-62
2022/08/25 10:16:03;;;;;;;;;16.50;16.00;;;;;30.25;32.57;100892.50;5081189;28;45496;-62
2022/08/25 10:18:29;;;;;;;;;24.00;19.25;;;;;30.35;32.80;100890.63;5081741;28;45248;-62
2022/08/25 10:21:02;;;;;;;;;17.00;17.00;;;;;30.45;32.57;100896.88;5080049;28;45573;-61
2022/08/25 10:23:28;;;;;;;;;19.00;16.75;;;;;30.57;32.75;100889.44;5081528;28;46067;-61
2022/08/25 10:25:55;;;;;;;;;22.00;19.25;;;;;30.69;32.54;100890.13;5081265;28;45416;-61
2022/08/25 10:28:45;;;;;;;;;18.00;16.50;;;;;30.82;33.06;100886.16;5081494;28;45239;-61
2022/08/25 10:31:24;;;;;;;;;15.25;14.75;;;;;31.01;33.22;100888.78;5080882;28;45334;-61
2022/08/25 10:33:55;;;;;;;;;14.00;14.00;;;;;31.19;32.36;100879.84;5081156;28;46225;-61
2022/08/25 10:36:31;;;;;;;;;16.75;13.75;;;;;31.38;32.17;100879.69;5081219;28;45270;-61
2022/08/25 10:38:59;;;;;;;;;20.25;18.75;;;;;31.59;32.43;100879.38;5079549;28;45524;-61
2022/08/25 10:41:56;;;;;;;;;18.50;17.25;;;;;31.85;32.31;100869.59;5080798;27;45456;-61
2022/08/25 10:47:33;;;;;;;;;14.75;14.75;;;;;32.49;32.31;100866.63;5080997;28;45177;-61
2022/08/25 10:50:37;;;;;;;;;16.75;14.50;;;;;32.90;32.33;100874.97;5076300;28;45333;-61
2022/08/25 10:53:02;;;;;;;;;17.50;14.75;;;;;33.32;32.33;100856.88;5060517;28;45245;-61
2022/08/25 10:55:34;;;;;;;;;14.75;14.25;;;;;33.77;32.79;100860.97;5065760;28;45260;-61
2022/08/25 10:58:22;;;;;;;;;14.75;14.00;;;;;34.35;32.49;100858.19;5080910;28;45264;-61
2022/08/25 11:01:18;;;;;;;;;13.00;12.75;;;;;34.97;32.56;100857.44;5080097;28;45249;-61
2022/08/25 11:03:54;;;;;;;;;16.00;14.25;;;;;35.63;32.47;100847.94;5055916;28;45655;-60
2022/08/25 11:06:36;;;;;;;;;13.25;13.25;;;;;36.29;32.21;100855.50;5058620;28;47615;-60
2022/08/25 11:09:07;;;;;;;;;17.75;16.75;;;;;36.99;32.45;100858.72;5060596;28;46439;-62
2022/08/25 11:11:38;;;;;;;;;12.50;12.50;;;;;37.56;31.84;100858.88;5060494;28;45367;-61
2022/08/25 11:14:27;;;;;;;;;14.00;13.00;;;;;38.10;31.42;100853.84;5060484;28;45223;-61
2022/08/25 11:17:02;;;;;;;;;14.00;12.75;;;;;38.62;30.96;100863.44;5067705;28;46410;-62
2022/08/25 11:19:36;;;;;;;;;11.25;11.25;;;;;39.04;30.61;100857.88;5080556;28;45496;-61
2022/08/25 11:22:24;;;;;;;;;13.00;13.00;;;;;39.49;30.38;100858.19;5080854;28;45307;-61
2022/08/25 11:25:26;;;;;;;;;14.50;13.50;;;;;39.96;30.00;100863.72;5080412;28;45282;-61
2022/08/25 11:27:56;;;;;;;;;11.50;11.50;;;;;40.38;29.38;100866.16;5080387;27;45498;-62
2022/08/25 11:30:22;;;;;;;;;12.75;12.75;;;;;40.75;29.69;100860.94;5080430;28;45319;-62
2022/08/25 11:32:51;;;;;;;;;10.75;10.75;;;;;41.09;28.78;100871.81;5080312;28;45278;-61
2022/08/25 11:35:28;;;;;;;;;12.25;12.00;;;;;41.40;28.67;100873.72;5079286;28;45466;-60